createdAt,value
2022-12-05T00:00:36.583Z,34.60
2022-12-05T00:03:06.105Z,33.37
2022-12-05T00:05:32.518Z,32.60
2022-12-05T00:07:58.920Z,29.77
2022-12-05T00:10:25.374Z,32.23
2022-12-05T00:12:51.829Z,31.73
2022-12-05T00:15:18.341Z,29.20
2022-12-05T00:17:44.780Z,34.07
2022-12-05T00:20:11.461Z,38.13
2022-12-05T00:22:38.453Z,27.30
2022-12-05T00:25:08.380Z,29.53
2022-12-05T00:27:34.940Z,37.87
2022-12-05T00:30:01.771Z,34.93
2022-12-05T00:32:29.643Z,37.30
2022-12-05T00:34:56.526Z,36.23
2022-12-05T00:37:23.444Z,33.30
2022-12-05T00:39:50.078Z,32.00
2022-12-05T00:42:16.630Z,37.17
2022-12-05T00:44:43.047Z,29.67
2022-12-05T00:47:09.554Z,27.70
2022-12-05T00:49:35.983Z,28.30
2022-12-05T00:52:02.404Z,26.63
2022-12-05T00:54:28.793Z,26.43
2022-12-05T00:56:58.056Z,24.83
2022-12-05T00:59:24.421Z,25.80
2022-12-05T01:01:52.036Z,27.40
2022-12-05T01:04:24.166Z,22.93
2022-12-05T01:06:53.825Z,21.40
2022-12-05T01:09:21.012Z,23.57
2022-12-05T01:11:48.536Z,27.17
2022-12-05T01:14:17.435Z,24.50
2022-12-05T01:16:46.342Z,23.37
2022-12-05T01:19:16.778Z,24.20
2022-12-05T01:21:43.520Z,32.77
2022-12-05T01:24:11.476Z,28.77
2022-12-05T01:26:39.762Z,29.40
2022-12-05T01:29:06.440Z,27.40
2022-12-05T01:31:35.960Z,29.30
2022-12-05T01:34:06.136Z,28.17
2022-12-05T01:36:32.599Z,26.10
2022-12-05T01:38:59.726Z,26.97
2022-12-05T01:41:32.186Z,25.47
2022-12-05T01:44:26.475Z,25.70
2022-12-05T01:46:53.935Z,26.50
2022-12-05T01:49:42.279Z,25.23
2022-12-05T01:52:22.750Z,24.23
2022-12-05T01:54:51.893Z,23.47
2022-12-05T01:57:18.411Z,21.53
2022-12-05T01:59:49.848Z,25.50
2022-12-05T02:02:16.498Z,26.57
2022-12-05T02:04:58.372Z,23.30
2022-12-05T02:07:25.226Z,25.40
2022-12-05T02:09:51.672Z,24.20
2022-12-05T02:12:20.124Z,24.97
2022-12-05T02:15:14.605Z,22.90
2022-12-05T02:17:50.666Z,21.37
2022-12-05T02:20:48.173Z,23.23
2022-12-05T02:23:37.635Z,20.57
2022-12-05T02:26:22.276Z,22.80
2022-12-05T02:29:09.570Z,20.10
2022-12-05T02:31:54.254Z,22.33
2022-12-05T02:34:57.694Z,21.00
2022-12-05T02:37:39.178Z,21.67
2022-12-05T02:40:20.042Z,17.80
2022-12-05T02:43:25.057Z,18.70
2022-12-05T02:45:56.778Z,22.80
2022-12-05T02:48:27.960Z,19.13
2022-12-05T02:50:58.523Z,22.53
2022-12-05T02:53:27.692Z,20.23
2022-12-05T02:55:55.095Z,23.37
2022-12-05T02:58:33.595Z,18.80
2022-12-05T03:01:00.495Z,19.40
2022-12-05T03:03:27.517Z,22.70
2022-12-05T03:06:14.241Z,20.93
2022-12-05T03:08:57.140Z,19.23
2022-12-05T03:11:23.697Z,20.37
2022-12-05T03:13:58.064Z,17.57
2022-12-05T03:16:39.368Z,17.97
2022-12-05T03:19:13.078Z,17.90
2022-12-05T03:21:47.726Z,18.43
2022-12-05T03:24:14.951Z,20.53
2022-12-05T03:26:55.075Z,21.13
2022-12-05T03:29:27.274Z,19.60
2022-12-05T03:32:22.753Z,17.27
2022-12-05T03:35:04.761Z,19.27
2022-12-05T03:37:31.294Z,18.87
2022-12-05T03:40:08.600Z,20.33
2022-12-05T03:42:40.482Z,19.60
2022-12-05T03:45:12.177Z,22.10
2022-12-05T03:47:41.582Z,17.53
2022-12-05T03:50:15.795Z,18.57
2022-12-05T03:53:18.551Z,18.47
2022-12-05T03:55:42.313Z,23.10
2022-12-05T03:58:15.110Z,22.33
2022-12-05T04:00:47.313Z,21.33
2022-12-05T04:03:23.050Z,19.37
2022-12-05T04:05:54.981Z,22.03
2022-12-05T04:08:31.521Z,17.73
2022-12-05T04:11:03.313Z,21.70
2022-12-05T04:13:40.575Z,17.80
2022-12-05T04:16:40.820Z,17.53
2022-12-05T04:19:18.260Z,19.10
2022-12-05T04:21:49.539Z,16.93
2022-12-05T04:24:39.833Z,19.10
2022-12-05T04:27:09.878Z,17.50
2022-12-05T04:29:45.740Z,21.20
2022-12-05T04:32:13.819Z,24.97
2022-12-05T04:34:46.513Z,21.00
2022-12-05T04:37:19.554Z,25.10
2022-12-05T04:39:53.969Z,23.33
2022-12-05T04:42:25.850Z,21.03
2022-12-05T04:45:01.712Z,23.87
2022-12-05T04:47:32.568Z,18.80
2022-12-05T04:50:00.692Z,21.80
2022-12-05T04:52:28.918Z,21.50
2022-12-05T04:55:02.403Z,16.60
2022-12-05T04:57:37.144Z,14.80
2022-12-05T05:00:05.023Z,15.50
2022-12-05T05:02:38.500Z,17.53
2022-12-05T05:05:13.729Z,16.90
2022-12-05T05:07:50.626Z,16.77
2022-12-05T05:10:22.718Z,20.20
2022-12-05T05:12:49.197Z,24.23
2022-12-05T05:15:15.675Z,22.60
2022-12-05T05:17:42.078Z,19.23
2022-12-05T05:20:23.977Z,19.03
2022-12-05T05:22:53.491Z,17.07
2022-12-05T05:25:20.859Z,13.47
2022-12-05T05:27:52.289Z,12.63
2022-12-05T05:30:19.952Z,14.80
2022-12-05T05:32:46.907Z,18.07
2022-12-05T05:35:14.517Z,15.10
2022-12-05T05:37:41.009Z,15.10
2022-12-05T05:40:11.216Z,14.53
2022-12-05T05:42:42.502Z,17.43
2022-12-05T05:45:09.931Z,14.13
2022-12-05T05:47:36.470Z,11.40
2022-12-05T05:50:03.751Z,13.23
2022-12-05T05:52:32.847Z,10.97
2022-12-05T05:54:59.243Z,12.53
2022-12-05T05:57:25.619Z,13.17
2022-12-05T05:59:52.337Z,13.27
2022-12-05T06:02:18.903Z,14.40
2022-12-05T06:04:45.405Z,13.73
2022-12-05T06:07:11.825Z,16.43
2022-12-05T06:09:38.388Z,18.57
2022-12-05T06:12:05.140Z,13.87
2022-12-05T06:14:31.609Z,13.07
2022-12-05T06:16:58.078Z,14.13
2022-12-05T06:19:24.720Z,13.60
2022-12-05T06:21:51.478Z,13.60
2022-12-05T06:24:18.003Z,14.40
2022-12-05T06:26:44.435Z,13.70
2022-12-05T06:29:11.586Z,13.33
2022-12-05T06:31:38.317Z,13.17
2022-12-05T06:34:04.872Z,12.97
2022-12-05T06:36:31.643Z,14.37
2022-12-05T06:38:58.550Z,11.77
2022-12-05T06:41:27.639Z,13.53
2022-12-05T06:44:01.380Z,12.70
2022-12-05T06:46:28.617Z,13.87
2022-12-05T06:48:57.410Z,11.30
2022-12-05T06:51:24.666Z,13.53
2022-12-05T06:53:51.595Z,14.53
2022-12-05T06:56:19.820Z,14.93
2022-12-05T06:58:48.295Z,16.60
2022-12-05T07:01:37.622Z,13.63
2022-12-05T07:04:06.236Z,13.97
2022-12-05T07:06:33.900Z,12.93
2022-12-05T07:09:00.300Z,13.17
2022-12-05T07:11:27.036Z,13.33
2022-12-05T07:13:53.572Z,14.53
2022-12-05T07:16:20.085Z,14.43
2022-12-05T07:18:46.623Z,16.83
2022-12-05T07:21:15.029Z,16.20
2022-12-05T07:23:45.737Z,16.30
2022-12-05T07:26:15.373Z,12.53
2022-12-05T07:28:42.259Z,15.37
2022-12-05T07:31:12.335Z,12.50
2022-12-05T07:33:39.026Z,14.13
2022-12-05T07:36:10.130Z,13.70
2022-12-05T07:38:37.100Z,11.40
2022-12-05T07:41:13.113Z,10.03
2022-12-05T07:43:40.748Z,12.83
2022-12-05T07:46:08.327Z,9.93
2022-12-05T07:48:34.783Z,9.80
2022-12-05T07:51:03.591Z,11.23
2022-12-05T07:53:32.058Z,9.20
2022-12-05T07:56:00.512Z,9.30
2022-12-05T07:58:29.366Z,7.97
2022-12-05T08:00:56.315Z,9.33
2022-12-05T08:03:22.857Z,8.33
2022-12-05T08:05:49.359Z,10.77
2022-12-05T08:08:15.904Z,11.67
2022-12-05T08:10:42.345Z,14.87
2022-12-05T08:13:08.767Z,9.17
2022-12-05T08:15:36.594Z,8.10
2022-12-05T08:18:03.800Z,8.47
2022-12-05T08:20:30.605Z,9.10
2022-12-05T08:22:57.204Z,7.37
2022-12-05T08:25:23.814Z,9.90
2022-12-05T08:27:50.335Z,7.57
2022-12-05T08:30:17.146Z,8.53
2022-12-05T08:32:43.713Z,10.10
2022-12-05T08:35:10.251Z,8.63
2022-12-05T08:37:36.657Z,8.97
2022-12-05T08:40:03.917Z,11.53
2022-12-05T08:42:30.408Z,11.13
2022-12-05T08:44:57.129Z,13.70
2022-12-05T08:47:23.731Z,10.70
2022-12-05T08:49:50.093Z,7.70
2022-12-05T08:52:16.495Z,7.47
2022-12-05T08:54:42.882Z,7.87
2022-12-05T08:57:09.261Z,7.40
2022-12-05T08:59:35.659Z,8.60
2022-12-05T09:02:02.122Z,9.23
2022-12-05T09:04:28.852Z,9.03
2022-12-05T09:06:55.285Z,13.67
2022-12-05T09:09:21.667Z,8.50
2022-12-05T09:11:50.728Z,13.77
2022-12-05T09:14:17.504Z,11.53
2022-12-05T09:16:45.825Z,13.10
2022-12-05T09:19:18.546Z,11.20
2022-12-05T09:21:44.995Z,11.17
2022-12-05T09:24:13.231Z,8.67
2022-12-05T09:26:40.530Z,9.30
2022-12-05T09:29:09.991Z,9.50
2022-12-05T09:31:42.988Z,8.70
2022-12-05T09:34:09.805Z,9.97
2022-12-05T09:36:36.244Z,10.13
2022-12-05T09:39:05.868Z,10.20
2022-12-05T09:42:05.400Z,11.83
2022-12-05T09:44:47.123Z,11.70
2022-12-05T09:47:25.917Z,12.20
2022-12-05T09:49:57.939Z,11.83
2022-12-05T09:52:26.710Z,9.13
2022-12-05T09:54:53.763Z,11.60
2022-12-05T09:57:33.726Z,13.07
2022-12-05T10:00:03.669Z,10.80
2022-12-05T10:02:44.093Z,11.73
2022-12-05T10:05:21.457Z,13.73
2022-12-05T10:08:19.658Z,14.23
2022-12-05T10:11:14.054Z,13.17
2022-12-05T10:14:01.877Z,14.90
2022-12-05T10:16:51.585Z,11.90
2022-12-05T10:19:28.801Z,13.30
2022-12-05T10:22:13.707Z,12.50
2022-12-05T10:24:49.363Z,15.07
2022-12-05T10:27:24.362Z,13.93
2022-12-05T10:30:01.499Z,13.03
2022-12-05T10:32:57.753Z,11.20
2022-12-05T10:35:27.393Z,11.60
2022-12-05T10:37:59.091Z,12.87
2022-12-05T10:40:35.727Z,12.23
2022-12-05T10:43:03.664Z,13.83
2022-12-05T10:45:30.124Z,14.97
2022-12-05T10:47:58.090Z,13.17
2022-12-05T10:50:35.906Z,15.90
2022-12-05T10:53:04.147Z,14.17
2022-12-05T10:55:50.581Z,12.63
2022-12-05T10:58:30.388Z,13.97
2022-12-05T11:00:59.114Z,13.37
2022-12-05T11:03:35.575Z,11.43
2022-12-05T11:06:15.051Z,12.80
2022-12-05T11:09:03.794Z,13.23
2022-12-05T11:11:30.376Z,12.90
2022-12-05T11:14:21.400Z,14.03
2022-12-05T11:16:53.374Z,13.33
2022-12-05T11:19:22.460Z,12.83
2022-12-05T11:21:49.983Z,13.00
2022-12-05T11:24:27.510Z,14.17
2022-12-05T11:26:54.501Z,17.37
2022-12-05T11:29:39.651Z,14.87
2022-12-05T11:32:18.417Z,14.60
2022-12-05T11:34:51.320Z,12.10
2022-12-05T11:37:26.853Z,12.70
2022-12-05T11:39:53.310Z,12.93
2022-12-05T11:42:45.863Z,13.40
2022-12-05T11:45:40.039Z,11.27
2022-12-05T11:48:33.735Z,11.00
2022-12-05T11:51:34.341Z,10.80
2022-12-05T11:54:41.668Z,15.53
2022-12-05T11:57:34.187Z,14.33
2022-12-05T12:00:22.757Z,16.10
2022-12-05T12:03:01.580Z,15.80
2022-12-05T12:05:55.064Z,18.40
2022-12-05T12:08:46.135Z,18.03
2022-12-05T12:11:26.178Z,19.47
2022-12-05T12:13:52.634Z,19.30
2022-12-05T12:16:19.115Z,23.63
2022-12-05T12:19:23.040Z,21.60
2022-12-05T12:21:55.281Z,23.07
2022-12-05T12:24:21.679Z,27.27
2022-12-05T12:27:16.823Z,21.73
2022-12-05T12:30:15.076Z,21.17
2022-12-05T12:33:11.191Z,22.60
2022-12-05T12:36:12.773Z,17.13
2022-12-05T12:38:52.291Z,19.27
2022-12-05T12:41:32.857Z,21.60
2022-12-05T12:44:20.564Z,18.27
2022-12-05T12:46:53.803Z,19.73
2022-12-05T12:49:35.521Z,17.47
2022-12-05T12:52:05.393Z,18.00
2022-12-05T12:55:05.735Z,19.77
2022-12-05T12:57:46.743Z,21.67
2022-12-05T13:00:39.815Z,20.43
2022-12-05T13:03:27.315Z,21.23
2022-12-05T13:05:59.003Z,21.90
2022-12-05T13:08:52.860Z,19.27
2022-12-05T13:11:21.217Z,15.30
2022-12-05T13:13:53.094Z,16.20
2022-12-05T13:16:25.491Z,16.93
2022-12-05T13:18:52.790Z,20.27
2022-12-05T13:21:20.321Z,24.07
2022-12-05T13:23:49.981Z,19.07
2022-12-05T13:26:17.741Z,25.00
2022-12-05T13:28:47.143Z,28.27
2022-12-05T13:31:16.809Z,24.10
2022-12-05T13:33:49.272Z,22.77
2022-12-05T13:36:37.494Z,22.10
2022-12-05T13:39:26.331Z,20.90
2022-12-05T13:42:15.280Z,19.87
2022-12-05T13:44:48.684Z,20.50
2022-12-05T13:47:32.221Z,20.73
2022-12-05T13:50:04.678Z,20.30
2022-12-05T13:52:38.508Z,18.67
2022-12-05T13:55:22.307Z,17.30
2022-12-05T13:57:51.716Z,18.03
2022-12-05T14:00:18.080Z,18.07
2022-12-05T14:02:47.408Z,21.20
2022-12-05T14:05:13.799Z,17.80
2022-12-05T14:07:48.160Z,22.23
2022-12-05T14:10:20.177Z,21.63
2022-12-05T14:12:51.214Z,21.70
2022-12-05T14:15:32.512Z,18.60
2022-12-05T14:18:13.142Z,18.43
2022-12-05T14:20:53.685Z,17.97
2022-12-05T14:23:44.171Z,18.10
2022-12-05T14:26:48.194Z,18.80
2022-12-05T14:29:25.948Z,17.77
2022-12-05T14:32:04.685Z,18.63
2022-12-05T14:34:34.107Z,20.87
2022-12-05T14:37:08.061Z,24.83
2022-12-05T14:39:39.373Z,19.33
2022-12-05T14:42:21.371Z,18.47
2022-12-05T14:44:49.731Z,17.80
2022-12-05T14:47:26.852Z,18.10
2022-12-05T14:50:23.392Z,16.70
2022-12-05T14:53:15.003Z,19.20
2022-12-05T14:55:44.367Z,19.27
2022-12-05T14:58:31.402Z,21.53
2022-12-05T15:01:01.989Z,25.17
2022-12-05T15:03:35.593Z,23.63
2022-12-05T15:06:05.855Z,26.13
2022-12-05T15:08:42.259Z,23.20
2022-12-05T15:11:28.163Z,23.67
2022-12-05T15:14:10.231Z,22.10
2022-12-05T15:16:41.121Z,24.43
2022-12-05T15:19:15.839Z,27.13
2022-12-05T15:21:50.935Z,26.77
2022-12-05T15:24:19.726Z,28.43
2022-12-05T15:26:56.913Z,28.73
2022-12-05T15:29:26.961Z,24.40
2022-12-05T15:32:00.098Z,23.53
2022-12-05T15:34:35.403Z,20.50
2022-12-05T15:37:13.704Z,23.77
2022-12-05T15:40:03.830Z,23.47
2022-12-05T15:42:35.681Z,24.10
2022-12-05T15:45:14.514Z,24.40
2022-12-05T15:47:41.774Z,22.20
2022-12-05T15:50:35.487Z,20.13
2022-12-05T15:53:37.574Z,18.53
2022-12-05T15:56:18.601Z,20.60
2022-12-05T15:59:02.510Z,22.30
2022-12-05T16:01:29.794Z,31.07
2022-12-05T16:04:00.130Z,33.37
2022-12-05T16:06:38.713Z,21.30
2022-12-05T16:09:11.607Z,20.50
2022-12-05T16:11:38.653Z,20.00
2022-12-05T16:14:07.845Z,18.90
2022-12-05T16:16:37.242Z,21.33
2022-12-05T16:19:07.067Z,19.97
2022-12-05T16:21:40.880Z,26.00
2022-12-05T16:24:18.045Z,27.20
2022-12-05T16:26:57.979Z,31.10
2022-12-05T16:29:30.485Z,29.93
2022-12-05T16:31:59.691Z,23.60
2022-12-05T16:34:28.231Z,20.63
2022-12-05T16:36:56.915Z,21.93
2022-12-05T16:39:25.089Z,19.03
2022-12-05T16:41:52.285Z,18.63
2022-12-05T16:44:28.139Z,31.37
2022-12-05T16:46:56.406Z,24.83
2022-12-05T16:49:31.536Z,22.53
2022-12-05T16:52:08.533Z,27.60
2022-12-05T16:54:35.404Z,24.87
2022-12-05T16:57:02.872Z,21.90
2022-12-05T16:59:37.661Z,21.27
2022-12-05T17:02:07.399Z,18.27
2022-12-05T17:04:34.004Z,23.67
2022-12-05T17:07:00.424Z,28.80
2022-12-05T17:09:27.082Z,31.20
2022-12-05T17:12:11.028Z,30.90
2022-12-05T17:14:37.432Z,29.27
2022-12-05T17:17:05.874Z,32.70
2022-12-05T17:19:33.181Z,39.53
2022-12-05T17:22:00.055Z,41.70
2022-12-05T17:24:28.376Z,46.80
2022-12-05T17:26:54.828Z,46.17
2022-12-05T17:29:21.265Z,34.33
2022-12-05T17:31:47.819Z,31.27
2022-12-05T17:34:16.519Z,28.37
2022-12-05T17:36:44.055Z,25.47
2022-12-05T17:39:10.978Z,22.43
2022-12-05T17:41:37.427Z,24.87
2022-12-05T17:44:07.369Z,23.53
2022-12-05T17:46:33.788Z,19.33
2022-12-05T17:49:00.255Z,20.53
2022-12-05T17:51:26.878Z,19.43
2022-12-05T17:53:54.205Z,17.27
2022-12-05T17:56:20.891Z,18.33
2022-12-05T17:58:47.850Z,17.60
2022-12-05T18:01:16.799Z,16.67
2022-12-05T18:03:43.858Z,20.07
2022-12-05T18:06:10.485Z,19.07
2022-12-05T18:08:39.806Z,21.30
2022-12-05T18:11:07.052Z,21.37
2022-12-05T18:13:34.315Z,25.03
2022-12-05T18:16:01.838Z,30.60
2022-12-05T18:18:29.370Z,25.27
2022-12-05T18:21:10.412Z,29.80
2022-12-05T18:23:37.753Z,24.80
2022-12-05T18:26:05.443Z,24.27
2022-12-05T18:28:35.124Z,24.23
2022-12-05T18:31:08.437Z,23.60
2022-12-05T18:33:35.059Z,24.73
2022-12-05T18:36:09.399Z,21.70
2022-12-05T18:38:36.943Z,20.63
2022-12-05T18:41:05.110Z,23.10
2022-12-05T18:43:32.669Z,19.80
2022-12-05T18:46:01.122Z,18.17
2022-12-05T18:48:39.450Z,16.43
2022-12-05T18:51:13.582Z,18.43
2022-12-05T18:53:41.443Z,16.50
2022-12-05T18:56:22.253Z,13.70
2022-12-05T18:59:02.530Z,19.33
2022-12-05T19:01:30.764Z,16.90
2022-12-05T19:03:59.474Z,23.53
2022-12-05T19:06:29.695Z,23.83
2022-12-05T19:08:58.151Z,24.60
2022-12-05T19:11:26.340Z,29.60
2022-12-05T19:14:03.419Z,26.70
2022-12-05T19:16:33.307Z,26.07
2022-12-05T19:19:02.109Z,22.80
2022-12-05T19:21:30.514Z,21.90
2022-12-05T19:23:57.636Z,23.70
2022-12-05T19:26:25.430Z,20.70
2022-12-05T19:28:51.905Z,23.13
2022-12-05T19:31:20.859Z,18.43
2022-12-05T19:33:49.486Z,17.87
2022-12-05T19:36:23.743Z,21.20
2022-12-05T19:38:52.449Z,25.37
2022-12-05T19:41:21.737Z,26.87
2022-12-05T19:43:48.285Z,27.70
2022-12-05T19:46:20.313Z,28.33
2022-12-05T19:48:47.801Z,25.53
2022-12-05T19:51:14.758Z,30.13
2022-12-05T19:53:42.919Z,32.27
2022-12-05T19:56:21.337Z,31.00
2022-12-05T19:58:48.907Z,27.03
2022-12-05T20:01:24.920Z,27.90
2022-12-05T20:03:55.706Z,26.63
2022-12-05T20:06:23.556Z,28.57
2022-12-05T20:08:52.483Z,22.60
2022-12-05T20:11:24.957Z,23.13
2022-12-05T20:13:53.603Z,24.03
2022-12-05T20:16:22.528Z,26.87
2022-12-05T20:18:50.159Z,25.07
2022-12-05T20:21:19.677Z,25.60
2022-12-05T20:23:46.405Z,26.63
2022-12-05T20:26:16.323Z,21.87
2022-12-05T20:28:43.476Z,22.50
2022-12-05T20:31:11.481Z,22.80
2022-12-05T20:33:38.828Z,21.67
2022-12-05T20:36:28.154Z,22.53
2022-12-05T20:39:00.081Z,21.77
2022-12-05T20:41:27.390Z,19.47
2022-12-05T20:43:55.955Z,19.20
2022-12-05T20:46:23.782Z,17.13
2022-12-05T20:48:51.294Z,17.00
2022-12-05T20:51:20.919Z,18.87
2022-12-05T20:53:47.358Z,17.50
2022-12-05T20:56:26.268Z,18.00
2022-12-05T20:58:55.829Z,17.07
2022-12-05T21:01:23.544Z,18.63
2022-12-05T21:03:52.001Z,18.60
2022-12-05T21:06:23.164Z,18.77
2022-12-05T21:08:50.561Z,25.00
2022-12-05T21:11:17.117Z,22.10
2022-12-05T21:13:43.592Z,22.43
2022-12-05T21:16:13.641Z,22.20
2022-12-05T21:18:40.852Z,18.80
2022-12-05T21:21:13.268Z,21.80
2022-12-05T21:23:40.056Z,21.97
2022-12-05T21:26:11.577Z,19.20
2022-12-05T21:28:38.311Z,22.63
2022-12-05T21:31:13.850Z,20.33
2022-12-05T21:33:42.250Z,21.53
2022-12-05T21:36:09.479Z,20.00
2022-12-05T21:38:36.001Z,22.70
2022-12-05T21:41:06.344Z,17.23
2022-12-05T21:43:36.791Z,21.50
2022-12-05T21:46:04.693Z,20.37
2022-12-05T21:48:31.921Z,18.23
2022-12-05T21:50:58.442Z,18.73
2022-12-05T21:53:24.985Z,25.00
2022-12-05T21:56:05.477Z,23.20
2022-12-05T21:58:31.951Z,18.93
2022-12-05T22:00:58.365Z,20.40
2022-12-05T22:03:24.749Z,18.93
2022-12-05T22:05:59.119Z,20.63
2022-12-05T22:08:25.665Z,18.90
2022-12-05T22:10:52.117Z,22.00
2022-12-05T22:13:18.548Z,23.23
2022-12-05T22:15:44.968Z,22.53
2022-12-05T22:18:12.136Z,22.03
2022-12-05T22:20:38.558Z,20.40
2022-12-05T22:23:04.994Z,20.57
2022-12-05T22:25:31.360Z,17.63
2022-12-05T22:27:57.776Z,16.97
2022-12-05T22:30:24.206Z,22.13
2022-12-05T22:32:53.707Z,23.90
2022-12-05T22:35:20.111Z,20.03
2022-12-05T22:37:46.522Z,18.00
2022-12-05T22:40:12.988Z,17.77
2022-12-05T22:42:39.442Z,17.40
2022-12-05T22:45:06.956Z,23.10
2022-12-05T22:47:33.336Z,23.37
2022-12-05T22:49:59.856Z,24.80
2022-12-05T22:52:26.422Z,22.30
2022-12-05T22:54:52.843Z,21.20
2022-12-05T22:57:19.202Z,19.10
2022-12-05T22:59:45.624Z,19.67
2022-12-05T23:02:14.875Z,19.80
2022-12-05T23:04:41.589Z,15.50
2022-12-05T23:07:08.027Z,19.00
2022-12-05T23:09:34.441Z,17.27
2022-12-05T23:12:00.866Z,20.77
2022-12-05T23:14:27.293Z,21.00
2022-12-05T23:16:54.105Z,20.63
2022-12-05T23:19:20.643Z,19.50
2022-12-05T23:21:47.078Z,17.17
2022-12-05T23:24:13.554Z,17.07
2022-12-05T23:26:43.068Z,18.30
2022-12-05T23:29:12.278Z,16.30
2022-12-05T23:31:40.017Z,16.10
2022-12-05T23:34:06.999Z,16.20
2022-12-05T23:36:34.718Z,16.33
2022-12-05T23:39:01.941Z,14.23
2022-12-05T23:41:28.587Z,15.60
2022-12-05T23:43:55.457Z,17.00
2022-12-05T23:46:24.702Z,18.13
2022-12-05T23:48:51.732Z,20.67
2022-12-05T23:51:21.254Z,18.27
2022-12-05T23:53:51.606Z,18.07
2022-12-05T23:56:20.405Z,17.37
2022-12-05T23:58:47.151Z,16.20
